createdAt,value
2019-04-30T00:00:19.615Z,23.47
2019-04-30T00:01:19.610Z,23.47
2019-04-30T00:02:19.595Z,23.43
2019-04-30T00:03:19.798Z,23.43
2019-04-30T00:04:19.575Z,23.42
2019-04-30T00:05:19.566Z,23.48
2019-04-30T00:06:19.586Z,23.40
2019-04-30T00:07:19.542Z,23.47
2019-04-30T00:08:19.526Z,23.42
2019-04-30T00:09:19.520Z,23.48
2019-04-30T00:10:19.505Z,23.40
2019-04-30T00:11:19.670Z,23.46
2019-04-30T00:12:19.532Z,23.40
2019-04-30T00:13:20.938Z,23.51
2019-04-30T00:14:19.463Z,23.53
2019-04-30T00:15:19.702Z,23.43
2019-04-30T00:16:19.434Z,23.43
2019-04-30T00:17:19.856Z,23.48
2019-04-30T00:18:19.434Z,23.48
2019-04-30T00:19:29.677Z,23.42
2019-04-30T00:20:19.389Z,23.43
2019-04-30T00:21:19.382Z,23.43
2019-04-30T00:22:31.028Z,23.43
2019-04-30T00:23:22.698Z,23.46
2019-04-30T00:24:20.343Z,23.46
2019-04-30T00:25:19.788Z,23.43
2019-04-30T00:26:19.325Z,23.46
2019-04-30T00:27:21.052Z,23.40
2019-04-30T00:28:20.305Z,23.40
2019-04-30T00:29:26.655Z,23.43
2019-04-30T00:30:20.317Z,23.38
2019-04-30T00:31:23.606Z,23.42
2019-04-30T00:32:20.261Z,23.43
2019-04-30T00:33:22.263Z,23.39
2019-04-30T00:34:19.235Z,23.36
2019-04-30T00:35:19.767Z,23.39
2019-04-30T00:36:19.218Z,23.50
2019-04-30T00:37:19.201Z,23.42
2019-04-30T00:38:19.197Z,23.47
2019-04-30T00:39:19.180Z,23.42
2019-04-30T00:40:21.644Z,23.42
2019-04-30T00:41:20.195Z,23.40
2019-04-30T00:42:24.259Z,23.46
2019-04-30T00:43:20.133Z,23.43
2019-04-30T00:44:20.024Z,23.40
2019-04-30T00:45:19.112Z,23.43
2019-04-30T00:46:25.317Z,23.47
2019-04-30T00:47:20.136Z,23.46
2019-04-30T00:48:26.924Z,23.48
2019-04-30T00:49:23.365Z,23.46
2019-04-30T00:50:35.860Z,23.47
2019-04-30T00:51:21.308Z,23.39
2019-04-30T00:52:19.036Z,23.46
2019-04-30T00:53:19.061Z,23.48
2019-04-30T00:54:22.361Z,23.46
2019-04-30T00:55:20.004Z,23.42
2019-04-30T00:56:19.904Z,23.38
2019-04-30T00:57:18.977Z,23.40
2019-04-30T00:58:24.865Z,23.47
2019-04-30T00:59:19.996Z,23.42
2019-04-30T01:00:25.296Z,23.38
2019-04-30T01:01:19.929Z,23.43
2019-04-30T01:02:27.693Z,23.42
2019-04-30T01:03:19.911Z,23.38
2019-04-30T01:04:19.394Z,23.42
2019-04-30T01:05:18.905Z,23.39
2019-04-30T01:06:27.507Z,23.46
2019-04-30T01:07:19.864Z,23.46
2019-04-30T01:08:21.124Z,23.42
2019-04-30T01:09:19.844Z,23.40
2019-04-30T01:10:19.725Z,23.40
2019-04-30T01:11:18.860Z,23.47
2019-04-30T01:12:27.784Z,23.38
2019-04-30T01:13:19.798Z,23.42
2019-04-30T01:14:18.977Z,23.46
2019-04-30T01:15:19.116Z,23.46
2019-04-30T01:16:19.552Z,23.43
2019-04-30T01:17:18.984Z,23.42
2019-04-30T01:18:19.324Z,23.43
2019-04-30T01:19:29.463Z,23.40
2019-04-30T01:20:19.721Z,23.42
2019-04-30T01:21:29.110Z,23.39
2019-04-30T01:22:21.567Z,23.46
2019-04-30T01:23:19.700Z,23.42
2019-04-30T01:24:19.070Z,23.40
2019-04-30T01:25:20.671Z,23.47
2019-04-30T01:26:18.807Z,23.46
2019-04-30T01:27:18.837Z,23.43
2019-04-30T01:28:23.187Z,23.39
2019-04-30T01:29:19.622Z,23.38
2019-04-30T01:30:22.588Z,23.47
2019-04-30T01:31:18.802Z,23.40
2019-04-30T01:32:20.989Z,23.38
2019-04-30T01:33:19.123Z,23.40
2019-04-30T01:34:19.568Z,23.43
2019-04-30T01:35:19.104Z,23.42
2019-04-30T01:36:19.321Z,23.46
2019-04-30T01:37:20.479Z,23.42
2019-04-30T01:38:19.559Z,23.39
2019-04-30T01:39:19.565Z,23.40
2019-04-30T01:40:18.962Z,23.46
2019-04-30T01:41:20.345Z,23.46
2019-04-30T01:42:19.475Z,23.46
2019-04-30T01:43:23.198Z,23.43
2019-04-30T01:44:19.623Z,23.38
2019-04-30T01:45:18.874Z,23.47
2019-04-30T01:46:18.958Z,23.47
2019-04-30T01:47:21.535Z,23.39
2019-04-30T01:48:19.450Z,23.40
2019-04-30T01:49:20.221Z,23.46
2019-04-30T01:50:19.511Z,23.39
2019-04-30T01:51:21.654Z,23.42
2019-04-30T01:52:35.033Z,23.40
2019-04-30T01:53:19.356Z,23.42
2019-04-30T01:54:24.045Z,23.40
2019-04-30T01:55:19.727Z,23.48
2019-04-30T01:56:19.212Z,23.39
2019-04-30T01:57:19.295Z,23.39
2019-04-30T01:58:19.402Z,23.38
2019-04-30T01:59:19.066Z,23.46
2019-04-30T02:00:19.579Z,23.40
2019-04-30T02:01:19.035Z,23.40
2019-04-30T02:02:18.568Z,23.40
2019-04-30T02:03:19.316Z,23.43
2019-04-30T02:04:19.565Z,23.42
2019-04-30T02:05:18.886Z,23.46
2019-04-30T02:06:19.679Z,23.47
2019-04-30T02:07:19.064Z,23.43
2019-04-30T02:08:19.542Z,23.36
2019-04-30T02:09:18.855Z,23.42
2019-04-30T02:10:18.651Z,23.40
2019-04-30T02:11:18.964Z,23.35
2019-04-30T02:12:19.719Z,23.36
2019-04-30T02:13:18.905Z,23.35
2019-04-30T02:14:18.916Z,23.42
2019-04-30T02:15:19.259Z,23.42
2019-04-30T02:16:18.753Z,23.47
2019-04-30T02:17:19.253Z,23.43
2019-04-30T02:18:19.526Z,23.42
2019-04-30T02:19:18.831Z,23.42
2019-04-30T02:20:18.607Z,23.39
2019-04-30T02:21:19.479Z,23.42
2019-04-30T02:22:18.926Z,23.43
2019-04-30T02:23:29.708Z,23.38
2019-04-30T02:24:19.221Z,23.39
2019-04-30T02:25:19.520Z,23.43
2019-04-30T02:26:18.699Z,23.46
2019-04-30T02:27:19.133Z,23.46
2019-04-30T02:28:18.996Z,23.42
2019-04-30T02:29:19.119Z,23.42
2019-04-30T02:30:20.708Z,23.40
2019-04-30T02:31:19.466Z,23.40
2019-04-30T02:32:20.518Z,23.39
2019-04-30T02:33:19.786Z,23.42
2019-04-30T02:34:21.824Z,23.38
2019-04-30T02:35:19.447Z,23.35
2019-04-30T02:36:19.835Z,23.39
2019-04-30T02:37:20.859Z,23.39
2019-04-30T02:38:20.136Z,23.43
2019-04-30T02:39:20.196Z,23.36
2019-04-30T02:40:20.118Z,23.40
2019-04-30T02:41:19.342Z,23.43
2019-04-30T02:42:20.114Z,23.42
2019-04-30T02:43:20.189Z,23.46
2019-04-30T02:44:19.591Z,23.43
2019-04-30T02:45:19.742Z,23.50
2019-04-30T02:46:19.201Z,23.43
2019-04-30T02:47:20.225Z,23.42
2019-04-30T02:48:19.439Z,23.47
2019-04-30T02:49:20.179Z,23.50
2019-04-30T02:50:19.825Z,23.51
2019-04-30T02:51:20.020Z,23.43
2019-04-30T02:52:19.575Z,23.43
2019-04-30T02:53:19.905Z,23.47
2019-04-30T02:54:29.650Z,23.40
2019-04-30T02:55:19.441Z,23.38
2019-04-30T02:56:20.276Z,23.46
2019-04-30T02:57:22.883Z,23.40
2019-04-30T02:58:20.992Z,23.42
2019-04-30T02:59:20.078Z,23.36
2019-04-30T03:00:20.542Z,23.39
2019-04-30T03:01:19.947Z,23.36
2019-04-30T03:02:19.549Z,23.38
2019-04-30T03:03:20.300Z,23.38
2019-04-30T03:04:19.629Z,23.33
2019-04-30T03:05:20.169Z,23.39
2019-04-30T03:06:20.373Z,23.36
2019-04-30T03:07:19.419Z,23.42
2019-04-30T03:08:19.848Z,23.33
2019-04-30T03:09:20.074Z,23.36
2019-04-30T03:10:19.782Z,23.36
2019-04-30T03:11:20.294Z,23.36
2019-04-30T03:12:19.732Z,23.40
2019-04-30T03:13:19.973Z,23.42
2019-04-30T03:14:19.876Z,23.39
2019-04-30T03:15:22.310Z,23.46
2019-04-30T03:16:20.757Z,23.40
2019-04-30T03:17:17.433Z,23.42
2019-04-30T03:18:19.673Z,23.38
2019-04-30T03:19:19.649Z,23.46
2019-04-30T03:20:31.337Z,23.36
2019-04-30T03:21:19.141Z,23.43
2019-04-30T03:22:20.147Z,23.39
2019-04-30T03:23:19.514Z,23.46
2019-04-30T03:24:19.985Z,23.36
2019-04-30T03:25:29.853Z,23.36
2019-04-30T03:26:19.841Z,23.40
2019-04-30T03:27:17.330Z,23.40
2019-04-30T03:28:19.962Z,23.36
2019-04-30T03:29:23.364Z,23.36
2019-04-30T03:30:21.741Z,23.35
2019-04-30T03:31:21.970Z,23.42
2019-04-30T03:32:22.259Z,23.36
2019-04-30T03:33:17.257Z,23.35
2019-04-30T03:34:24.562Z,23.38
2019-04-30T03:35:22.331Z,23.31
2019-04-30T03:36:21.331Z,23.33
2019-04-30T03:37:19.687Z,23.31
2019-04-30T03:38:17.202Z,23.35
2019-04-30T03:39:19.693Z,23.36
2019-04-30T03:40:20.093Z,23.38
2019-04-30T03:41:19.714Z,23.39
2019-04-30T03:42:19.685Z,23.33
2019-04-30T03:43:17.141Z,23.38
2019-04-30T03:44:24.699Z,23.39
2019-04-30T03:45:20.422Z,23.35
2019-04-30T03:46:19.300Z,23.38
2019-04-30T03:47:17.101Z,23.36
2019-04-30T03:48:19.819Z,23.32
2019-04-30T03:49:19.960Z,23.33
2019-04-30T03:50:19.833Z,23.35
2019-04-30T03:51:17.062Z,23.43
2019-04-30T03:52:19.736Z,23.38
2019-04-30T03:53:17.035Z,23.31
2019-04-30T03:54:19.188Z,23.32
2019-04-30T03:55:17.014Z,23.32
2019-04-30T03:56:29.848Z,23.35
2019-04-30T03:57:16.992Z,23.35
2019-04-30T03:58:20.875Z,23.35
2019-04-30T03:59:19.689Z,23.33
2019-04-30T04:00:16.962Z,23.38
2019-04-30T04:01:19.434Z,23.38
2019-04-30T04:02:16.952Z,23.32
2019-04-30T04:03:19.707Z,23.33
2019-04-30T04:04:16.925Z,23.31
2019-04-30T04:05:16.905Z,23.32
2019-04-30T04:06:21.282Z,23.33
2019-04-30T04:07:16.881Z,23.31
2019-04-30T04:08:19.322Z,23.35
2019-04-30T04:09:16.883Z,23.32
2019-04-30T04:10:19.301Z,23.31
2019-04-30T04:11:16.833Z,23.31
2019-04-30T04:12:16.852Z,23.31
2019-04-30T04:13:16.815Z,23.35
2019-04-30T04:14:19.587Z,23.28
2019-04-30T04:15:16.803Z,23.31
2019-04-30T04:16:19.347Z,23.33
2019-04-30T04:17:16.774Z,23.32
2019-04-30T04:18:16.764Z,23.31
2019-04-30T04:19:19.476Z,23.35
2019-04-30T04:20:16.774Z,23.32
2019-04-30T04:21:18.090Z,23.31
2019-04-30T04:22:16.714Z,23.33
2019-04-30T04:23:19.116Z,23.36
2019-04-30T04:24:16.693Z,23.33
2019-04-30T04:25:16.684Z,23.31
2019-04-30T04:26:16.693Z,23.33
2019-04-30T04:27:29.810Z,23.28
2019-04-30T04:28:16.648Z,23.39
2019-04-30T04:29:19.372Z,23.35
2019-04-30T04:30:16.632Z,23.33
2019-04-30T04:31:19.084Z,23.33
2019-04-30T04:32:16.657Z,23.32
2019-04-30T04:33:16.594Z,23.35
2019-04-30T04:34:19.444Z,23.35
2019-04-30T04:35:16.582Z,23.33
2019-04-30T04:36:16.561Z,23.38
2019-04-30T04:37:16.551Z,23.32
2019-04-30T04:38:16.574Z,23.25
2019-04-30T04:39:16.529Z,23.35
2019-04-30T04:40:16.513Z,23.33
2019-04-30T04:41:16.505Z,23.32
2019-04-30T04:42:19.096Z,23.31
2019-04-30T04:43:16.479Z,23.38
2019-04-30T04:44:16.477Z,23.32
2019-04-30T04:45:19.576Z,23.28
2019-04-30T04:46:16.452Z,23.32
2019-04-30T04:47:19.451Z,23.32
2019-04-30T04:48:16.423Z,23.32
2019-04-30T04:49:16.470Z,23.35
2019-04-30T04:50:16.405Z,23.33
2019-04-30T04:51:31.320Z,23.33
2019-04-30T04:52:20.625Z,23.33
2019-04-30T04:53:16.378Z,23.33
2019-04-30T04:54:16.364Z,23.35
2019-04-30T04:55:16.404Z,23.33
2019-04-30T04:56:18.948Z,23.32
2019-04-30T04:57:19.304Z,23.33
2019-04-30T04:59:30.332Z,23.40
2019-04-30T05:00:30.366Z,23.32
2019-04-30T05:01:30.313Z,23.35
2019-04-30T05:02:32.638Z,23.32
2019-04-30T05:03:30.290Z,23.31
2019-04-30T05:04:30.279Z,23.23
2019-04-30T05:05:30.263Z,23.25
2019-04-30T05:06:30.261Z,23.17
2019-04-30T05:07:30.244Z,23.25
2019-04-30T05:08:30.229Z,23.15
2019-04-30T05:09:30.214Z,23.22
2019-04-30T05:10:30.212Z,23.27
2019-04-30T05:11:31.722Z,23.28
2019-04-30T05:12:30.184Z,23.31
2019-04-30T05:13:30.177Z,23.31
2019-04-30T05:14:30.160Z,23.31
2019-04-30T05:15:30.153Z,23.33
2019-04-30T05:16:30.139Z,23.36
2019-04-30T05:17:32.080Z,23.38
2019-04-30T05:18:30.124Z,23.36
2019-04-30T05:19:30.105Z,23.39
2019-04-30T05:20:30.094Z,23.48
2019-04-30T05:21:41.686Z,23.48
2019-04-30T05:22:31.122Z,23.53
2019-04-30T05:23:30.068Z,23.57
2019-04-30T05:24:30.057Z,23.54
2019-04-30T05:25:30.041Z,23.58
2019-04-30T05:26:30.031Z,23.61
2019-04-30T05:27:30.365Z,23.66
2019-04-30T05:28:30.284Z,23.75
2019-04-30T05:29:38.666Z,23.70
2019-04-30T05:30:29.980Z,23.75
2019-04-30T05:31:29.975Z,23.60
2019-04-30T05:32:29.965Z,23.70
2019-04-30T05:33:29.948Z,23.66
2019-04-30T05:34:29.980Z,23.70
2019-04-30T05:35:31.107Z,23.72
2019-04-30T05:36:29.922Z,23.70
2019-04-30T05:37:29.905Z,23.76
2019-04-30T05:38:31.370Z,23.76
2019-04-30T05:39:29.878Z,23.76
2019-04-30T05:40:29.923Z,23.80
2019-04-30T05:41:29.863Z,23.76
2019-04-30T05:42:29.849Z,23.78
2019-04-30T05:43:29.837Z,23.84
2019-04-30T05:44:29.935Z,23.78
2019-04-30T05:45:29.818Z,23.85
2019-04-30T05:46:30.028Z,23.78
2019-04-30T05:47:29.790Z,23.79
2019-04-30T05:48:29.782Z,23.83
2019-04-30T05:49:29.771Z,23.88
2019-04-30T05:50:29.760Z,23.88
2019-04-30T05:51:29.752Z,23.80
2019-04-30T05:52:29.779Z,23.87
2019-04-30T05:53:29.734Z,23.84
2019-04-30T05:54:29.720Z,23.87
2019-04-30T05:55:29.704Z,23.93
2019-04-30T05:56:30.470Z,23.91
2019-04-30T05:57:29.679Z,23.94
2019-04-30T05:58:30.128Z,23.93
2019-04-30T05:59:29.659Z,23.90
2019-04-30T06:00:41.096Z,23.94
2019-04-30T06:01:29.711Z,23.90
2019-04-30T06:02:33.649Z,23.94
2019-04-30T06:03:33.034Z,23.91
2019-04-30T06:04:29.631Z,23.95
2019-04-30T06:05:29.590Z,23.94
2019-04-30T06:06:29.579Z,23.95
2019-04-30T06:07:29.984Z,23.97
2019-04-30T06:08:29.556Z,24.00
2019-04-30T06:09:33.753Z,23.97
2019-04-30T06:10:29.599Z,23.94
2019-04-30T06:11:29.527Z,24.03
2019-04-30T06:12:29.518Z,23.95
2019-04-30T06:13:31.962Z,23.93
2019-04-30T06:14:29.499Z,24.00
2019-04-30T06:15:29.488Z,24.09
2019-04-30T06:16:29.867Z,24.00
2019-04-30T06:17:29.469Z,24.03
2019-04-30T06:18:29.486Z,24.03
2019-04-30T06:19:29.438Z,24.00
2019-04-30T06:20:29.425Z,23.97
2019-04-30T06:21:29.573Z,24.05
2019-04-30T06:22:29.405Z,23.95
2019-04-30T06:23:29.533Z,23.98
2019-04-30T06:24:30.270Z,23.93
2019-04-30T06:25:37.197Z,23.94
2019-04-30T06:26:30.366Z,23.91
2019-04-30T06:27:29.354Z,23.95
2019-04-30T06:28:29.335Z,23.91
2019-04-30T06:29:29.379Z,23.91
2019-04-30T06:30:29.824Z,24.00
2019-04-30T06:31:40.399Z,23.91
2019-04-30T06:32:29.578Z,23.91
2019-04-30T06:33:29.288Z,23.93
2019-04-30T06:34:29.496Z,23.90
2019-04-30T06:35:29.540Z,23.80
2019-04-30T06:36:29.250Z,23.95
2019-04-30T06:37:31.612Z,23.84
2019-04-30T06:38:29.264Z,23.87
2019-04-30T06:39:29.217Z,23.84
2019-04-30T06:40:29.453Z,23.83
2019-04-30T06:41:29.705Z,23.84
2019-04-30T06:42:29.383Z,23.80
2019-04-30T06:43:29.174Z,23.90
2019-04-30T06:44:37.251Z,23.87
2019-04-30T06:45:30.145Z,23.84
2019-04-30T06:46:29.137Z,23.88
2019-04-30T06:47:33.124Z,23.90
2019-04-30T06:48:29.506Z,23.87
2019-04-30T06:49:29.105Z,23.90
2019-04-30T06:50:29.294Z,23.80
2019-04-30T06:51:30.748Z,23.88
2019-04-30T06:52:29.379Z,23.87
2019-04-30T06:53:29.339Z,23.87
2019-04-30T06:54:29.049Z,23.87
2019-04-30T06:55:30.819Z,23.91
2019-04-30T06:56:29.036Z,23.91
2019-04-30T06:57:29.544Z,23.85
2019-04-30T06:58:29.285Z,23.83
2019-04-30T06:59:29.959Z,23.94
2019-04-30T07:00:33.773Z,23.93
2019-04-30T07:01:29.986Z,23.87
2019-04-30T07:02:39.414Z,23.91
2019-04-30T07:03:29.171Z,23.91
2019-04-30T07:04:29.383Z,23.88
2019-04-30T07:05:28.927Z,23.93
2019-04-30T07:06:31.899Z,23.87
2019-04-30T07:07:37.058Z,23.84
2019-04-30T07:08:38.893Z,23.90
2019-04-30T07:09:31.654Z,23.84
2019-04-30T07:10:29.870Z,23.85
2019-04-30T07:11:29.350Z,23.84
2019-04-30T07:12:30.614Z,23.87
2019-04-30T07:13:29.723Z,23.87
2019-04-30T07:14:29.280Z,23.88
2019-04-30T07:15:29.605Z,23.90
2019-04-30T07:16:29.827Z,23.88
2019-04-30T07:17:29.312Z,23.90
2019-04-30T07:18:28.926Z,23.91
2019-04-30T07:19:34.559Z,23.91
2019-04-30T07:20:33.712Z,23.87
2019-04-30T07:21:31.192Z,23.95
2019-04-30T07:22:39.032Z,23.88
2019-04-30T07:23:29.723Z,23.90
2019-04-30T07:24:29.625Z,23.93
2019-04-30T07:25:29.314Z,23.88
2019-04-30T07:26:29.017Z,23.91
2019-04-30T07:27:31.885Z,23.90
2019-04-30T07:28:43.776Z,23.97
2019-04-30T07:29:29.714Z,23.93
2019-04-30T07:30:30.714Z,23.93
2019-04-30T07:31:29.565Z,23.94
2019-04-30T07:32:28.887Z,23.91
2019-04-30T07:33:39.779Z,23.91
2019-04-30T07:34:31.684Z,23.93
2019-04-30T07:35:29.605Z,23.93
2019-04-30T07:36:43.299Z,23.95
2019-04-30T07:37:29.613Z,23.95
2019-04-30T07:38:29.517Z,23.94
2019-04-30T07:39:32.052Z,23.90
2019-04-30T07:40:29.270Z,23.88
2019-04-30T07:41:30.778Z,23.87
2019-04-30T07:42:29.382Z,23.78
2019-04-30T07:43:28.942Z,23.78
2019-04-30T07:44:33.326Z,23.80
2019-04-30T07:45:32.034Z,23.73
2019-04-30T07:46:29.951Z,23.76
2019-04-30T07:47:29.589Z,23.79
2019-04-30T07:48:29.800Z,23.79
2019-04-30T07:49:46.183Z,23.75
2019-04-30T07:50:31.315Z,23.73
2019-04-30T07:51:32.055Z,23.78
2019-04-30T07:52:32.984Z,23.73
2019-04-30T07:53:30.803Z,23.79
2019-04-30T07:54:30.076Z,23.79
2019-04-30T07:55:29.528Z,23.72
2019-04-30T07:56:32.456Z,23.79
2019-04-30T07:57:32.315Z,23.69
2019-04-30T07:58:29.893Z,23.76
2019-04-30T07:59:30.161Z,23.79
2019-04-30T08:00:30.912Z,23.75
2019-04-30T08:01:29.501Z,23.76
2019-04-30T08:02:29.733Z,23.75
2019-04-30T08:03:30.172Z,23.79
2019-04-30T08:04:40.847Z,23.76
2019-04-30T08:05:29.883Z,23.76
2019-04-30T08:06:31.051Z,23.80
2019-04-30T08:07:29.822Z,23.84
2019-04-30T08:08:30.050Z,23.80
2019-04-30T08:09:38.613Z,23.80
2019-04-30T08:10:29.771Z,23.85
2019-04-30T08:11:29.309Z,23.90
2019-04-30T08:12:33.561Z,23.84
2019-04-30T08:13:32.370Z,23.84
2019-04-30T08:14:28.836Z,23.90
2019-04-30T08:15:29.542Z,23.90
2019-04-30T08:16:28.799Z,23.88
2019-04-30T08:17:28.920Z,23.90
2019-04-30T08:18:29.479Z,23.93
2019-04-30T08:19:28.707Z,23.93
2019-04-30T08:20:29.555Z,23.97
2019-04-30T08:21:28.800Z,23.95
2019-04-30T08:22:29.716Z,24.02
2019-04-30T08:23:34.967Z,23.97
2019-04-30T08:24:29.274Z,23.94
2019-04-30T08:25:29.049Z,23.95
2019-04-30T08:26:28.728Z,24.00
2019-04-30T08:27:29.614Z,23.97
2019-04-30T08:28:30.168Z,23.93
2019-04-30T08:29:29.466Z,24.02
2019-04-30T08:30:30.026Z,24.05
2019-04-30T08:31:29.195Z,23.94
2019-04-30T08:32:28.961Z,24.08
2019-04-30T08:33:29.258Z,24.09
2019-04-30T08:34:29.262Z,24.08
2019-04-30T08:35:39.778Z,24.06
2019-04-30T08:36:29.783Z,23.97
2019-04-30T08:37:28.827Z,24.08
2019-04-30T08:38:29.943Z,24.08
2019-04-30T08:39:31.607Z,24.08
2019-04-30T08:40:29.611Z,23.95
2019-04-30T08:41:29.245Z,24.09
2019-04-30T08:42:31.761Z,24.08
2019-04-30T08:43:29.297Z,24.06
2019-04-30T08:44:29.483Z,24.09
2019-04-30T08:45:31.457Z,24.08
2019-04-30T08:46:28.881Z,24.06
2019-04-30T08:47:29.122Z,24.03
2019-04-30T08:48:43.869Z,23.95
2019-04-30T08:49:30.401Z,24.06
2019-04-30T08:50:29.701Z,24.08
2019-04-30T08:51:30.342Z,24.08
2019-04-30T08:52:27.743Z,24.13
2019-04-30T08:53:32.887Z,24.05
2019-04-30T08:54:29.513Z,24.08
2019-04-30T08:55:30.298Z,24.18
2019-04-30T08:56:29.663Z,24.12
2019-04-30T08:57:29.418Z,24.08
2019-04-30T08:58:29.183Z,24.20
2019-04-30T08:59:29.453Z,24.06
2019-04-30T09:00:29.607Z,24.06
2019-04-30T09:01:29.393Z,24.09
2019-04-30T09:02:28.970Z,24.06
2019-04-30T09:03:29.483Z,24.02
2019-04-30T09:04:29.095Z,24.12
2019-04-30T09:05:30.032Z,24.06
2019-04-30T09:06:38.964Z,24.12
2019-04-30T09:07:29.665Z,24.03
2019-04-30T09:08:29.322Z,24.09
2019-04-30T09:09:29.450Z,23.98
2019-04-30T09:10:29.290Z,24.06
2019-04-30T09:11:34.109Z,24.08
2019-04-30T09:12:29.978Z,24.03
2019-04-30T09:13:28.683Z,24.12
2019-04-30T09:14:29.528Z,24.21
2019-04-30T09:15:29.064Z,24.16
2019-04-30T09:16:29.364Z,24.06
2019-04-30T09:17:29.593Z,24.10
2019-04-30T09:18:29.175Z,24.16
2019-04-30T09:19:29.580Z,24.16
2019-04-30T09:20:29.143Z,24.16
2019-04-30T09:21:27.415Z,24.16
2019-04-30T09:22:29.233Z,24.15
2019-04-30T09:23:34.317Z,24.27
2019-04-30T09:24:30.782Z,24.15
2019-04-30T09:25:28.694Z,24.16
2019-04-30T09:26:29.033Z,24.10
2019-04-30T09:27:29.450Z,24.16
2019-04-30T09:28:29.350Z,24.13
2019-04-30T09:29:29.099Z,24.13
2019-04-30T09:30:27.388Z,24.16
2019-04-30T09:31:29.391Z,24.24
2019-04-30T09:32:29.126Z,24.18
2019-04-30T09:33:29.299Z,24.20
2019-04-30T09:34:29.116Z,24.16
2019-04-30T09:35:29.592Z,24.27
2019-04-30T09:36:29.082Z,24.24
2019-04-30T09:37:39.074Z,24.18
2019-04-30T09:38:28.977Z,24.25
2019-04-30T09:39:29.355Z,24.25
2019-04-30T09:40:30.263Z,24.20
2019-04-30T09:41:28.800Z,24.21
2019-04-30T09:42:29.484Z,24.27
2019-04-30T09:43:28.612Z,24.15
2019-04-30T09:44:30.533Z,24.24
2019-04-30T09:45:28.573Z,24.27
2019-04-30T09:46:29.699Z,24.25
2019-04-30T09:47:27.133Z,24.24
2019-04-30T09:48:30.296Z,24.25
2019-04-30T09:49:27.119Z,24.20
2019-04-30T09:50:28.966Z,24.22
2019-04-30T09:51:29.404Z,24.22
2019-04-30T09:52:30.229Z,24.22
2019-04-30T09:53:27.079Z,24.27
2019-04-30T09:54:29.051Z,24.25
2019-04-30T09:55:28.908Z,24.25
2019-04-30T09:56:27.033Z,24.25
2019-04-30T09:57:29.023Z,24.22
2019-04-30T09:58:27.021Z,24.24
2019-04-30T09:59:28.948Z,24.27
2019-04-30T10:00:26.992Z,24.27
2019-04-30T10:01:26.981Z,24.21
2019-04-30T10:02:28.952Z,24.22
2019-04-30T10:03:27.208Z,24.21
2019-04-30T10:04:29.686Z,24.21
2019-04-30T10:05:29.062Z,24.15
2019-04-30T10:06:39.024Z,24.12
2019-04-30T10:07:29.372Z,24.15
2019-04-30T10:08:47.885Z,24.15
2019-04-30T10:09:29.328Z,24.18
2019-04-30T10:10:28.815Z,24.13
2019-04-30T10:11:26.867Z,24.18
2019-04-30T10:12:26.862Z,24.15
2019-04-30T10:13:26.850Z,24.24
2019-04-30T10:14:26.871Z,24.18
2019-04-30T10:15:28.842Z,24.24
2019-04-30T10:16:26.814Z,24.15
2019-04-30T10:17:26.805Z,24.25
2019-04-30T10:18:26.798Z,24.22
2019-04-30T10:19:26.780Z,24.18
2019-04-30T10:20:26.775Z,24.24
2019-04-30T10:21:26.763Z,24.24
2019-04-30T10:22:26.750Z,24.28
2019-04-30T10:23:26.735Z,24.30
2019-04-30T10:24:26.730Z,24.22
2019-04-30T10:25:26.718Z,24.31
2019-04-30T10:26:26.709Z,24.28
2019-04-30T10:27:29.183Z,24.31
2019-04-30T10:28:26.679Z,24.28
2019-04-30T10:29:26.676Z,24.31
2019-04-30T10:30:26.698Z,24.28
2019-04-30T10:31:26.651Z,24.30
2019-04-30T10:32:26.641Z,24.35
2019-04-30T10:33:28.576Z,24.35
2019-04-30T10:34:26.621Z,24.37
2019-04-30T10:35:28.455Z,24.42
2019-04-30T10:36:26.611Z,24.27
2019-04-30T10:37:28.630Z,24.34
2019-04-30T10:38:26.573Z,24.42
2019-04-30T10:39:38.777Z,24.27
2019-04-30T10:40:28.567Z,24.31
2019-04-30T10:41:28.624Z,24.35
2019-04-30T10:42:28.718Z,24.40
2019-04-30T10:43:26.514Z,24.31
2019-04-30T10:44:26.505Z,24.25
2019-04-30T10:45:28.636Z,24.28
2019-04-30T10:46:26.486Z,24.32
2019-04-30T10:47:26.510Z,24.37
2019-04-30T10:48:26.466Z,24.27
2019-04-30T10:49:26.503Z,24.32
2019-04-30T10:50:26.439Z,24.30
2019-04-30T10:51:26.434Z,24.32
2019-04-30T10:52:26.428Z,24.34
2019-04-30T10:53:26.451Z,24.37
2019-04-30T10:54:27.017Z,24.28
2019-04-30T10:55:26.382Z,24.35
2019-04-30T10:56:26.376Z,24.27
2019-04-30T10:57:28.380Z,24.25
2019-04-30T10:58:26.352Z,24.37
2019-04-30T10:59:26.348Z,24.30
2019-04-30T11:00:26.326Z,24.31
2019-04-30T11:01:26.318Z,24.30
2019-04-30T11:02:26.307Z,24.25
2019-04-30T11:03:26.293Z,24.35
2019-04-30T11:04:26.323Z,24.32
2019-04-30T11:05:26.273Z,24.32
2019-04-30T11:06:26.266Z,24.35
2019-04-30T11:07:26.254Z,24.39
2019-04-30T11:08:26.238Z,24.32
2019-04-30T11:09:26.233Z,24.32
2019-04-30T11:10:39.936Z,24.27
2019-04-30T11:11:26.208Z,24.31
2019-04-30T11:12:26.201Z,24.30
2019-04-30T11:13:26.184Z,24.30
2019-04-30T11:14:26.180Z,24.32
2019-04-30T11:15:26.164Z,24.22
2019-04-30T11:16:26.178Z,24.21
2019-04-30T11:17:26.292Z,24.32
2019-04-30T11:18:26.360Z,24.31
2019-04-30T11:19:26.344Z,24.28
2019-04-30T11:20:26.320Z,24.31
2019-04-30T11:21:26.313Z,24.31
2019-04-30T11:22:26.321Z,24.30
2019-04-30T11:23:26.288Z,24.34
2019-04-30T11:24:35.892Z,24.32
2019-04-30T11:25:27.772Z,24.31
2019-04-30T11:26:26.576Z,24.25
2019-04-30T11:27:26.552Z,24.32
2019-04-30T11:28:26.596Z,24.32
2019-04-30T11:29:26.228Z,24.31
2019-04-30T11:30:26.267Z,24.31
2019-04-30T11:31:26.284Z,24.28
2019-04-30T11:32:26.283Z,24.30
2019-04-30T11:33:26.106Z,24.34
2019-04-30T11:34:28.116Z,24.28
2019-04-30T11:35:25.944Z,24.28
2019-04-30T11:36:25.938Z,24.24
2019-04-30T11:37:25.923Z,24.25
2019-04-30T11:38:25.929Z,24.32
2019-04-30T11:39:25.925Z,24.32
2019-04-30T11:40:33.930Z,24.34
2019-04-30T11:42:39.322Z,24.34
2019-04-30T11:43:39.471Z,24.34
2019-04-30T11:44:40.331Z,24.28
2019-04-30T11:45:39.241Z,24.22
2019-04-30T11:46:39.230Z,24.31
2019-04-30T11:47:39.217Z,24.27
2019-04-30T11:48:39.258Z,24.24
2019-04-30T11:49:39.201Z,24.25
2019-04-30T11:50:39.426Z,24.25
2019-04-30T11:51:39.319Z,24.30
2019-04-30T11:52:39.165Z,24.24
2019-04-30T11:53:39.159Z,24.24
2019-04-30T11:54:48.703Z,24.30
2019-04-30T11:55:40.129Z,24.28
2019-04-30T11:56:39.120Z,24.28
2019-04-30T11:57:39.742Z,24.25
2019-04-30T11:58:39.102Z,24.28
2019-04-30T11:59:39.598Z,24.30
2019-04-30T12:00:39.527Z,24.24
2019-04-30T12:01:39.065Z,24.31
2019-04-30T12:02:39.360Z,24.24
2019-04-30T12:03:39.433Z,24.32
2019-04-30T12:04:39.404Z,24.34
2019-04-30T12:05:39.028Z,24.32
2019-04-30T12:06:39.453Z,24.32
2019-04-30T12:07:38.998Z,24.35
2019-04-30T12:08:39.301Z,24.30
2019-04-30T12:09:38.976Z,24.30
2019-04-30T12:10:39.231Z,24.27
2019-04-30T12:11:39.004Z,24.31
2019-04-30T12:12:45.930Z,24.35
2019-04-30T12:13:38.932Z,24.31
2019-04-30T12:14:39.554Z,24.27
2019-04-30T12:15:38.916Z,24.32
2019-04-30T12:16:39.611Z,24.40
2019-04-30T12:17:38.938Z,24.40
2019-04-30T12:18:38.876Z,24.34
2019-04-30T12:19:38.958Z,24.30
2019-04-30T12:20:38.857Z,24.39
2019-04-30T12:21:38.843Z,24.37
2019-04-30T12:22:39.698Z,24.30
2019-04-30T12:23:38.831Z,24.39
2019-04-30T12:24:38.931Z,24.39
2019-04-30T12:25:41.201Z,24.37
2019-04-30T12:26:39.001Z,24.39
2019-04-30T12:27:38.795Z,24.39
2019-04-30T12:28:38.818Z,24.40
2019-04-30T12:29:39.750Z,24.35
2019-04-30T12:30:39.183Z,24.43
2019-04-30T12:31:38.739Z,24.30
2019-04-30T12:32:39.323Z,24.40
2019-04-30T12:33:38.715Z,24.35
2019-04-30T12:34:38.758Z,24.39
2019-04-30T12:35:38.690Z,24.39
2019-04-30T12:36:38.869Z,24.37
2019-04-30T12:37:39.166Z,24.39
2019-04-30T12:38:38.665Z,24.35
2019-04-30T12:39:39.485Z,24.39
2019-04-30T12:40:38.970Z,24.37
2019-04-30T12:41:40.398Z,24.39
2019-04-30T12:42:38.613Z,24.42
2019-04-30T12:43:48.660Z,24.35
2019-04-30T12:44:40.075Z,24.39
2019-04-30T12:45:39.377Z,24.42
2019-04-30T12:46:38.758Z,24.43
2019-04-30T12:47:38.562Z,24.37
2019-04-30T12:48:39.580Z,24.32
2019-04-30T12:49:39.678Z,24.35
2019-04-30T12:50:39.230Z,24.35
2019-04-30T12:51:45.599Z,24.34
2019-04-30T12:52:39.574Z,24.39
2019-04-30T12:53:38.496Z,24.39
2019-04-30T12:54:38.488Z,24.45